createdAt,value
2018-05-04T00:00:27.485Z,98112.14
2018-05-04T00:00:59.097Z,98113.00
2018-05-04T00:01:30.717Z,98110.02
2018-05-04T00:02:02.329Z,98106.66
2018-05-04T00:02:33.919Z,98111.78
2018-05-04T00:03:05.489Z,98113.48
2018-05-04T00:03:37.056Z,98113.06
2018-05-04T00:04:08.682Z,98117.33
2018-05-04T00:04:40.302Z,98113.48
2018-05-04T00:05:11.891Z,98117.77
2018-05-04T00:05:43.478Z,98115.20
2018-05-04T00:06:15.081Z,98113.55
2018-05-04T00:06:46.662Z,98117.33
2018-05-04T00:07:18.232Z,98122.02
2018-05-04T00:07:49.804Z,98122.06
2018-05-04T00:08:21.459Z,98119.94
2018-05-04T00:08:53.055Z,98121.66
2018-05-04T00:09:24.624Z,98118.25
2018-05-04T00:09:56.202Z,98122.12
2018-05-04T00:10:27.806Z,98122.98
2018-05-04T00:10:59.376Z,98122.09
2018-05-04T00:11:30.977Z,98125.91
2018-05-04T00:12:02.591Z,98125.96
2018-05-04T00:12:34.202Z,98124.69
2018-05-04T00:13:05.794Z,98123.84
2018-05-04T00:13:37.371Z,98130.28
2018-05-04T00:14:08.965Z,98129.86
2018-05-04T00:14:40.599Z,98129.88
2018-05-04T00:15:12.221Z,98125.18
2018-05-04T00:15:43.817Z,98128.59
2018-05-04T00:16:15.392Z,98129.02
2018-05-04T00:16:46.996Z,98132.37
2018-05-04T00:17:18.568Z,98123.05
2018-05-04T00:17:50.133Z,98125.19
2018-05-04T00:18:21.726Z,98126.89
2018-05-04T00:18:53.300Z,98127.79
2018-05-04T00:19:24.883Z,98129.92
2018-05-04T00:19:56.505Z,98127.75
2018-05-04T00:20:28.105Z,98126.09
2018-05-04T00:20:59.715Z,98129.49
2018-05-04T00:21:31.288Z,98128.17
2018-05-04T00:22:02.870Z,98129.03
2018-05-04T00:22:34.465Z,98127.75
2018-05-04T00:23:06.050Z,98130.30
2018-05-04T00:23:37.634Z,98132.84
2018-05-04T00:24:09.237Z,98128.12
2018-05-04T00:24:40.812Z,98130.67
2018-05-04T00:25:12.438Z,98127.73
2018-05-04T00:25:44.013Z,98126.40
2018-05-04T00:26:15.614Z,98117.03
2018-05-04T00:26:47.189Z,98129.62
2018-05-04T00:27:18.780Z,98131.47
2018-05-04T00:27:50.386Z,98125.96
2018-05-04T00:28:21.994Z,98127.73
2018-05-04T00:28:53.578Z,98129.39
2018-05-04T00:29:25.158Z,98132.42
2018-05-04T00:29:56.738Z,98128.59
2018-05-04T00:30:28.371Z,98132.44
2018-05-04T00:30:59.962Z,98135.89
2018-05-04T00:31:31.538Z,98134.63
2018-05-04T00:32:03.114Z,98142.28
2018-05-04T00:32:34.690Z,98133.34
2018-05-04T00:33:06.268Z,98135.05
2018-05-04T00:33:37.865Z,98138.45
2018-05-04T00:34:09.470Z,98141.86
2018-05-04T00:34:41.069Z,98138.03
2018-05-04T00:35:12.682Z,98136.33
2018-05-04T00:35:44.294Z,98137.66
2018-05-04T00:36:15.902Z,98142.77
2018-05-04T00:36:47.475Z,98137.23
2018-05-04T00:37:19.077Z,98137.22
2018-05-04T00:37:50.695Z,98141.91
2018-05-04T00:38:22.279Z,98140.64
2018-05-04T00:38:53.882Z,98141.50
2018-05-04T00:39:25.494Z,98139.80
2018-05-04T00:39:57.082Z,98139.37
2018-05-04T00:40:28.686Z,98141.93
2018-05-04T00:41:00.334Z,98138.09
2018-05-04T00:41:31.946Z,98141.13
2018-05-04T00:42:03.550Z,98141.55
2018-05-04T00:42:35.171Z,98144.53
2018-05-04T00:43:06.749Z,98145.38
2018-05-04T00:43:38.389Z,98143.68
2018-05-04T00:44:09.974Z,98143.27
2018-05-04T00:44:41.562Z,98143.67
2018-05-04T00:45:13.133Z,98144.48
2018-05-04T00:45:44.724Z,98147.08
2018-05-04T00:46:16.365Z,98139.84
2018-05-04T00:46:47.936Z,98137.34
2018-05-04T00:47:19.538Z,98143.69
2018-05-04T00:47:51.117Z,98142.41
2018-05-04T00:48:22.716Z,98149.66
2018-05-04T00:48:54.339Z,98151.36
2018-05-04T00:49:25.974Z,98147.10
2018-05-04T00:49:57.541Z,98145.81
2018-05-04T00:50:29.108Z,98145.83
2018-05-04T00:51:00.719Z,98159.06
2018-05-04T00:51:32.321Z,98149.27
2018-05-04T00:52:03.930Z,98159.92
2018-05-04T00:52:35.500Z,98160.35
2018-05-04T00:53:07.069Z,98159.03
2018-05-04T00:53:38.646Z,98162.91
2018-05-04T00:54:10.234Z,98157.33
2018-05-04T00:54:41.869Z,98156.52
2018-05-04T00:55:13.460Z,98159.50
2018-05-04T00:55:45.064Z,98160.73
2018-05-04T00:56:16.656Z,98159.88
2018-05-04T00:56:48.244Z,98158.17
2018-05-04T00:57:19.821Z,98156.94
2018-05-04T00:57:51.389Z,98156.05
2018-05-04T00:58:22.983Z,98164.60
2018-05-04T00:58:54.557Z,98158.23
2018-05-04T00:59:26.139Z,98162.48
2018-05-04T00:59:57.773Z,98162.06
2018-05-04T01:00:29.355Z,98160.78
2018-05-04T01:01:00.944Z,98162.06
2018-05-04T01:01:32.530Z,98159.50
2018-05-04T01:02:04.138Z,98162.06
2018-05-04T01:02:35.732Z,98157.37
2018-05-04T01:03:07.317Z,98159.08
2018-05-04T01:03:38.922Z,98158.23
2018-05-04T01:04:10.529Z,98155.73
2018-05-04T01:04:42.149Z,98148.90
2018-05-04T01:05:13.773Z,98158.23
2018-05-04T01:05:45.362Z,98156.10
2018-05-04T01:06:16.941Z,98151.41
2018-05-04T01:06:48.532Z,98158.66
2018-05-04T01:07:20.101Z,98155.25
2018-05-04T01:07:51.742Z,98154.44
2018-05-04T01:08:23.330Z,98151.89
2018-05-04T01:08:54.974Z,98154.88
2018-05-04T01:09:26.554Z,98156.64
2018-05-04T01:09:58.121Z,98157.05
2018-05-04T01:10:29.725Z,98158.28
2018-05-04T01:11:01.339Z,98160.83
2018-05-04T01:11:32.974Z,98164.66
2018-05-04T01:12:04.554Z,98161.67
2018-05-04T01:12:36.138Z,98159.97
2018-05-04T01:13:07.793Z,98161.69
2018-05-04T01:13:39.388Z,98161.70
2018-05-04T01:14:10.985Z,98166.38
2018-05-04T01:14:42.619Z,98165.09
2018-05-04T01:15:14.225Z,98165.94
2018-05-04T01:15:45.806Z,98161.27
2018-05-04T01:16:17.414Z,98167.18
2018-05-04T01:16:48.985Z,98163.81
2018-05-04T01:17:20.585Z,98165.09
2018-05-04T01:17:52.167Z,98163.39
2018-05-04T01:18:23.818Z,98169.79
2018-05-04T01:18:55.425Z,98160.84
2018-05-04T01:19:27.020Z,98166.38
2018-05-04T01:19:58.630Z,98162.97
2018-05-04T01:20:30.282Z,98164.67
2018-05-04T01:21:01.887Z,98160.41
2018-05-04T01:21:33.470Z,98156.16
2018-05-04T01:22:05.041Z,98164.25
2018-05-04T01:22:36.631Z,98154.89
2018-05-04T01:23:08.214Z,98160.42
2018-05-04T01:23:39.798Z,98162.13
2018-05-04T01:24:11.382Z,98164.67
2018-05-04T01:24:42.962Z,98160.46
2018-05-04T01:25:14.528Z,98161.31
2018-05-04T01:25:46.179Z,98165.15
2018-05-04T01:26:17.766Z,98167.28
2018-05-04T01:26:49.342Z,98163.87
2018-05-04T01:27:20.926Z,98164.72
2018-05-04T01:27:52.506Z,98159.19
2018-05-04T01:28:24.096Z,98159.61
2018-05-04T01:28:55.676Z,98167.28
2018-05-04T01:29:27.277Z,98166.42
2018-05-04T01:29:58.848Z,98165.59
2018-05-04T01:30:30.483Z,98162.61
2018-05-04T01:31:02.090Z,98162.61
2018-05-04T01:31:33.706Z,98157.91
2018-05-04T01:32:05.293Z,98163.45
2018-05-04T01:32:36.862Z,98158.77
2018-05-04T01:33:08.506Z,98160.91
2018-05-04T01:33:40.109Z,98162.19
2018-05-04T01:34:11.718Z,98159.20
2018-05-04T01:34:43.309Z,98164.31
2018-05-04T01:35:14.900Z,98159.62
2018-05-04T01:35:46.474Z,98156.65
2018-05-04T01:36:18.082Z,98165.59
2018-05-04T01:36:49.733Z,98162.65
2018-05-04T01:37:21.305Z,98157.98
2018-05-04T01:37:52.873Z,98158.39
2018-05-04T01:38:24.477Z,98160.09
2018-05-04T01:38:56.081Z,98157.97
2018-05-04T01:39:27.681Z,98153.72
2018-05-04T01:39:59.286Z,98157.13
2018-05-04T01:40:30.856Z,98157.55
2018-05-04T01:41:02.439Z,98156.76
2018-05-04T01:41:34.032Z,98156.28
2018-05-04T01:42:05.618Z,98155.85
2018-05-04T01:42:37.242Z,98159.30
2018-05-04T01:43:08.822Z,98152.48
2018-05-04T01:43:40.410Z,98153.73
2018-05-04T01:44:11.990Z,98161.38
2018-05-04T01:44:43.570Z,98159.67
2018-05-04T01:45:15.161Z,98154.98
2018-05-04T01:45:46.746Z,98158.40
2018-05-04T01:46:18.329Z,98157.55
2018-05-04T01:46:49.930Z,98152.81
2018-05-04T01:47:21.544Z,98154.55
2018-05-04T01:47:53.146Z,98152.86
2018-05-04T01:48:24.734Z,98157.11
2018-05-04T01:48:56.333Z,98156.69
2018-05-04T01:49:27.908Z,98146.04
2018-05-04T01:49:59.530Z,98152.43
2018-05-04T01:50:31.134Z,98148.59
2018-05-04T01:51:02.718Z,98151.97
2018-05-04T01:51:34.330Z,98152.00
2018-05-04T01:52:05.942Z,98147.31
2018-05-04T01:52:37.550Z,98145.61
2018-05-04T01:53:09.192Z,98148.17
2018-05-04T01:53:40.777Z,98149.02
2018-05-04T01:54:12.343Z,98154.55
2018-05-04T01:54:43.946Z,98150.73
2018-05-04T01:55:15.556Z,98146.91
2018-05-04T01:55:47.141Z,98149.03
2018-05-04T01:56:18.741Z,98144.78
2018-05-04T01:56:50.322Z,98144.78
2018-05-04T01:57:21.957Z,98151.16
2018-05-04T01:57:53.536Z,98153.30
2018-05-04T01:58:25.138Z,98150.73
2018-05-04T01:58:56.730Z,98149.87
2018-05-04T01:59:28.300Z,98143.92
2018-05-04T01:59:59.902Z,98152.01
2018-05-04T02:00:31.490Z,98148.17
2018-05-04T02:01:03.070Z,98143.97
2018-05-04T02:01:34.669Z,98147.80
2018-05-04T02:02:06.250Z,98144.39
2018-05-04T02:02:37.817Z,98134.34
2018-05-04T02:03:09.408Z,98146.09
2018-05-04T02:03:41.023Z,98142.66
2018-05-04T02:04:12.606Z,98146.05
2018-05-04T02:04:44.219Z,98135.84
2018-05-04T02:05:15.830Z,98141.80
2018-05-04T02:05:47.437Z,98143.50
2018-05-04T02:06:19.086Z,98143.97
2018-05-04T02:06:50.689Z,98142.27
2018-05-04T02:07:22.319Z,98143.93
2018-05-04T02:07:53.914Z,98152.06
2018-05-04T02:08:25.546Z,98145.25
2018-05-04T02:08:57.154Z,98143.97
2018-05-04T02:09:28.724Z,98145.24
2018-05-04T02:10:00.317Z,98148.61
2018-05-04T02:10:31.926Z,98144.39
2018-05-04T02:11:03.538Z,98153.77
2018-05-04T02:11:35.146Z,98152.54
2018-05-04T02:12:06.770Z,98150.80
2018-05-04T02:12:38.354Z,98155.05
2018-05-04T02:13:09.920Z,98159.31
2018-05-04T02:13:41.556Z,98157.17
2018-05-04T02:14:13.156Z,98155.89
2018-05-04T02:14:44.761Z,98153.77
2018-05-04T02:15:16.377Z,98161.85
2018-05-04T02:15:47.958Z,98151.22
2018-05-04T02:16:19.548Z,98155.47
2018-05-04T02:16:51.144Z,98146.16
2018-05-04T02:17:22.725Z,98151.22
2018-05-04T02:17:54.316Z,98146.97
2018-05-04T02:18:25.888Z,98144.40
2018-05-04T02:18:57.456Z,98149.95
2018-05-04T02:19:29.061Z,98148.67
2018-05-04T02:20:00.720Z,98150.37
2018-05-04T02:20:32.317Z,98148.70
2018-05-04T02:21:03.928Z,98145.31
2018-05-04T02:21:35.525Z,98150.37
2018-05-04T02:22:07.093Z,98150.37
2018-05-04T02:22:38.698Z,98148.24
2018-05-04T02:23:10.281Z,98148.70
2018-05-04T02:23:41.895Z,98149.09
2018-05-04T02:24:13.478Z,98149.98
2018-05-04T02:24:45.058Z,98146.58
2018-05-04T02:25:16.624Z,98149.14
2018-05-04T02:25:48.233Z,98148.30
2018-05-04T02:26:19.865Z,98148.72
2018-05-04T02:26:51.454Z,98143.98
2018-05-04T02:27:23.021Z,98143.98
2018-05-04T02:27:54.622Z,98149.52
2018-05-04T02:28:26.205Z,98147.81
2018-05-04T02:28:57.796Z,98151.64
2018-05-04T02:29:29.397Z,98148.23
2018-05-04T02:30:01.011Z,98148.23
2018-05-04T02:30:32.637Z,98152.06
2018-05-04T02:31:04.238Z,98148.23
2018-05-04T02:31:35.814Z,98156.33
2018-05-04T02:32:07.412Z,98155.05
2018-05-04T02:32:38.989Z,98156.31
2018-05-04T02:33:10.557Z,98157.61
2018-05-04T02:33:42.194Z,98147.38
2018-05-04T02:34:13.778Z,98151.64
2018-05-04T02:34:45.358Z,98153.77
2018-05-04T02:35:16.942Z,98155.47
2018-05-04T02:35:48.521Z,98156.75
2018-05-04T02:36:20.109Z,98155.05
2018-05-04T02:36:51.705Z,98152.54
2018-05-04T02:37:23.276Z,98154.67
2018-05-04T02:37:54.872Z,98155.53
2018-05-04T02:38:26.479Z,98153.81
2018-05-04T02:38:58.110Z,98154.63
2018-05-04T02:39:29.722Z,98155.91
2018-05-04T02:40:01.296Z,98149.52
2018-05-04T02:40:32.899Z,98156.77
2018-05-04T02:41:04.476Z,98150.84
2018-05-04T02:41:36.064Z,98156.37
2018-05-04T02:42:07.656Z,98155.89
2018-05-04T02:42:39.276Z,98149.52
2018-05-04T02:43:10.860Z,98154.19
2018-05-04T02:43:42.429Z,98149.94
2018-05-04T02:44:14.081Z,98155.47
2018-05-04T02:44:45.689Z,98151.64
2018-05-04T02:45:17.269Z,98153.77
2018-05-04T02:45:48.878Z,98152.93
2018-05-04T02:46:20.487Z,98158.94
2018-05-04T02:46:52.070Z,98157.66
2018-05-04T02:47:23.654Z,98162.77
2018-05-04T02:47:55.266Z,98156.76
2018-05-04T02:48:26.865Z,98165.75
2018-05-04T02:48:58.446Z,98158.09
2018-05-04T02:49:30.102Z,98155.97
2018-05-04T02:50:01.696Z,98150.86
2018-05-04T02:50:33.314Z,98153.84
2018-05-04T02:51:04.884Z,98156.81
2018-05-04T02:51:36.542Z,98150.47
2018-05-04T02:52:08.137Z,98146.17
2018-05-04T02:52:39.737Z,98146.17
2018-05-04T02:53:11.335Z,98149.16
2018-05-04T02:53:42.942Z,98152.12
2018-05-04T02:54:14.518Z,98157.66
2018-05-04T02:54:46.120Z,98150.44
2018-05-04T02:55:17.710Z,98155.12
2018-05-04T02:55:49.300Z,98155.16
2018-05-04T02:56:20.905Z,98149.19
2018-05-04T02:56:52.629Z,98157.25
2018-05-04T02:57:24.207Z,98154.25
2018-05-04T02:57:55.821Z,98158.94
2018-05-04T02:58:27.432Z,98147.45
2018-05-04T02:58:59.043Z,98154.69
2018-05-04T02:59:30.636Z,98149.16
2018-05-04T03:00:02.209Z,98145.36
2018-05-04T03:00:33.806Z,98147.88
2018-05-04T03:01:05.397Z,98143.59
2018-05-04T03:01:37.003Z,98147.44
2018-05-04T03:02:08.576Z,98147.87
2018-05-04T03:02:40.182Z,98144.08
2018-05-04T03:03:11.794Z,98139.79
2018-05-04T03:03:43.378Z,98137.70
2018-05-04T03:04:14.990Z,98144.94
2018-05-04T03:04:46.588Z,98142.38
2018-05-04T03:05:18.242Z,98144.52
2018-05-04T03:05:49.887Z,98145.38
2018-05-04T03:06:21.460Z,98142.44
2018-05-04T03:06:53.107Z,98140.69
2018-05-04T03:07:24.688Z,98143.67
2018-05-04T03:07:56.301Z,98142.82
2018-05-04T03:08:27.913Z,98143.29
2018-05-04T03:08:59.517Z,98145.42
2018-05-04T03:09:31.089Z,98139.89
2018-05-04T03:10:02.699Z,98145.38
2018-05-04T03:10:34.300Z,98135.63
2018-05-04T03:11:05.896Z,98133.08
2018-05-04T03:11:37.478Z,98135.63
2018-05-04T03:12:09.103Z,98128.38
2018-05-04T03:12:40.710Z,98127.11
2018-05-04T03:13:12.302Z,98130.09
2018-05-04T03:13:43.897Z,98130.52
2018-05-04T03:14:15.506Z,98130.52
2018-05-04T03:14:47.137Z,98128.77
2018-05-04T03:15:18.715Z,98109.41
2018-05-04T03:15:50.298Z,98130.94
2018-05-04T03:16:21.865Z,98132.64
2018-05-04T03:16:53.454Z,98127.06
2018-05-04T03:17:25.083Z,98130.46
2018-05-04T03:17:56.662Z,98125.35
2018-05-04T03:18:28.231Z,98127.50
2018-05-04T03:18:59.806Z,98124.13
2018-05-04T03:19:31.412Z,98124.94
2018-05-04T03:20:03.006Z,98121.11
2018-05-04T03:20:34.576Z,98122.00
2018-05-04T03:21:06.212Z,98123.66
2018-05-04T03:21:37.798Z,98124.56
2018-05-04T03:22:09.378Z,98128.39
2018-05-04T03:22:40.968Z,98126.64
2018-05-04T03:23:12.545Z,98127.06
2018-05-04T03:23:44.154Z,98135.57
2018-05-04T03:24:15.733Z,98136.38
2018-05-04T03:24:47.358Z,98135.09
2018-05-04T03:25:18.942Z,98136.80
2018-05-04T03:25:50.526Z,98138.09
2018-05-04T03:26:22.154Z,98133.81
2018-05-04T03:26:53.738Z,98142.77
2018-05-04T03:27:25.338Z,98141.91
2018-05-04T03:27:56.946Z,98144.45
2018-05-04T03:28:28.535Z,98140.16
2018-05-04T03:29:00.141Z,98145.67
2018-05-04T03:29:31.750Z,98152.00
2018-05-04T03:30:03.364Z,98148.55
2018-05-04T03:30:34.979Z,98146.84
2018-05-04T03:31:06.561Z,98151.47
2018-05-04T03:31:38.141Z,98152.75
2018-05-04T03:32:09.722Z,98140.02
2018-05-04T03:32:41.289Z,98148.92
2018-05-04T03:33:12.901Z,98152.38
2018-05-04T03:33:44.472Z,98151.94
2018-05-04T03:34:16.073Z,98153.23
2018-05-04T03:34:47.681Z,98153.22
2018-05-04T03:35:19.267Z,98148.98
2018-05-04T03:35:50.869Z,98150.67
2018-05-04T03:36:22.475Z,98151.54
2018-05-04T03:36:54.054Z,98156.64
2018-05-04T03:37:25.634Z,98152.80
2018-05-04T03:37:57.230Z,98154.03
2018-05-04T03:38:28.867Z,98149.77
2018-05-04T03:39:00.459Z,98152.39
2018-05-04T03:39:32.053Z,98149.41
2018-05-04T03:40:03.624Z,98152.81
2018-05-04T03:40:35.205Z,98156.22
2018-05-04T03:41:06.805Z,98153.22
2018-05-04T03:41:38.390Z,98152.33
2018-05-04T03:42:09.957Z,98154.92
2018-05-04T03:42:41.541Z,98160.46
2018-05-04T03:43:13.117Z,98157.07
2018-05-04T03:43:44.774Z,98158.41
2018-05-04T03:44:16.382Z,98151.64
2018-05-04T03:44:47.969Z,98161.44
2018-05-04T03:45:19.550Z,98155.91
2018-05-04T03:45:51.127Z,98156.77
2018-05-04T03:46:22.706Z,98153.83
2018-05-04T03:46:54.302Z,98149.14
2018-05-04T03:47:25.906Z,98152.12
2018-05-04T03:47:57.518Z,98152.93
2018-05-04T03:48:29.126Z,98147.45
2018-05-04T03:49:00.774Z,98153.84
2018-05-04T03:49:32.353Z,98150.90
2018-05-04T03:50:03.924Z,98147.50
2018-05-04T03:50:35.501Z,98154.31
2018-05-04T03:51:07.109Z,98153.47
2018-05-04T03:51:38.694Z,98154.73
2018-05-04T03:52:10.293Z,98154.73
2018-05-04T03:52:41.926Z,98158.09
2018-05-04T03:53:13.562Z,98156.39
2018-05-04T03:53:45.161Z,98158.56
2018-05-04T03:54:16.746Z,98159.41
2018-05-04T03:54:48.313Z,98160.33
2018-05-04T03:55:19.890Z,98155.17
2018-05-04T03:55:51.470Z,98159.05
2018-05-04T03:56:23.070Z,98158.15
2018-05-04T03:56:54.641Z,98166.66
2018-05-04T03:57:26.213Z,98155.59
2018-05-04T03:57:57.789Z,98158.57
2018-05-04T03:58:29.415Z,98126.16
2018-05-04T03:59:00.990Z,98161.55
2018-05-04T03:59:32.629Z,98160.70
2018-05-04T04:00:04.220Z,98156.87
2018-05-04T04:00:35.806Z,98162.83
2018-05-04T04:01:07.416Z,98162.83
2018-05-04T04:01:39.008Z,98158.53
2018-05-04T04:02:10.612Z,98162.82
2018-05-04T04:02:42.194Z,98160.27
2018-05-04T04:03:13.771Z,98166.67
2018-05-04T04:03:45.365Z,98162.88
2018-05-04T04:04:16.950Z,98165.86
2018-05-04T04:04:49.149Z,98168.84
2018-05-04T04:05:20.754Z,98171.41
2018-05-04T04:05:52.410Z,98163.73
2018-05-04T04:06:24.020Z,98164.59
2018-05-04T04:06:55.616Z,98168.84
2018-05-04T04:07:27.202Z,98165.43
2018-05-04T04:07:58.800Z,98155.81
2018-05-04T04:08:30.392Z,98167.14
2018-05-04T04:09:01.998Z,98165.86
2018-05-04T04:09:33.586Z,98165.86
2018-05-04T04:10:05.193Z,98165.86
2018-05-04T04:10:36.806Z,98161.61
2018-05-04T04:11:08.438Z,98163.73
2018-05-04T04:11:40.028Z,98160.33
2018-05-04T04:12:11.654Z,98159.05
2018-05-04T04:12:43.233Z,98160.33
2018-05-04T04:13:14.835Z,98157.34
2018-05-04T04:13:46.417Z,98163.27
2018-05-04T04:14:18.008Z,98159.11
2018-05-04T04:14:49.595Z,98164.55
2018-05-04T04:15:21.205Z,98162.03
2018-05-04T04:15:52.810Z,98160.28
2018-05-04T04:16:24.448Z,98161.12
2018-05-04T04:16:56.046Z,98155.54
2018-05-04T04:17:27.662Z,98162.30
2018-05-04T04:17:59.367Z,98160.11
2018-05-04T04:18:30.877Z,98161.38
2018-05-04T04:19:02.641Z,98158.70
2018-05-04T04:19:34.255Z,98158.21
2018-05-04T04:20:05.851Z,98163.64
2018-05-04T04:20:37.458Z,98140.81
2018-05-04T04:21:09.042Z,98163.09
2018-05-04T04:21:40.612Z,98157.07
2018-05-04T04:22:12.213Z,98164.67
2018-05-04T04:22:43.809Z,98164.61
2018-05-04T04:23:15.452Z,98169.74
2018-05-04T04:23:47.038Z,98168.58
2018-05-04T04:24:18.637Z,98176.30
2018-05-04T04:24:50.208Z,98173.39
2018-05-04T04:25:21.787Z,98178.98
2018-05-04T04:25:53.365Z,98174.34
2018-05-04T04:26:24.953Z,98185.06
2018-05-04T04:26:56.535Z,98182.14
2018-05-04T04:27:28.134Z,98194.50
2018-05-04T04:27:59.718Z,98186.02
2018-05-04T04:28:31.358Z,98190.27
2018-05-04T04:29:02.961Z,98196.66
2018-05-04T04:29:34.545Z,98192.41
2018-05-04T04:30:06.146Z,98189.86
2018-05-04T04:30:37.717Z,98194.12
2018-05-04T04:31:09.287Z,98194.13
2018-05-04T04:31:40.870Z,98196.25
2018-05-04T04:32:12.447Z,98201.36
2018-05-04T04:32:44.054Z,98210.30
2018-05-04T04:33:15.706Z,98202.22
2018-05-04T04:33:47.276Z,98202.22
2018-05-04T04:34:18.867Z,98199.28
2018-05-04T04:34:50.474Z,98202.69
2018-05-04T04:35:22.044Z,98203.97
2018-05-04T04:35:53.670Z,98206.05
2018-05-04T04:36:25.293Z,98203.91
2018-05-04T04:36:56.872Z,98207.76
2018-05-04T04:37:28.474Z,98210.36
2018-05-04T04:38:00.114Z,98212.48
2018-05-04T04:38:31.770Z,98214.61
2018-05-04T04:39:03.385Z,98216.75
2018-05-04T04:39:34.994Z,98216.31
2018-05-04T04:40:06.581Z,98220.53
2018-05-04T04:40:38.165Z,98216.70
2018-05-04T04:41:09.745Z,98224.78
2018-05-04T04:41:41.327Z,98223.92
2018-05-04T04:42:12.934Z,98221.33
2018-05-04T04:42:44.531Z,98226.00
2018-05-04T04:43:16.114Z,98222.59
2018-05-04T04:43:47.734Z,98227.23
2018-05-04T04:44:19.338Z,98226.80
2018-05-04T04:44:50.912Z,98231.06
2018-05-04T04:45:22.494Z,98228.13
2018-05-04T04:45:54.114Z,98231.11
2018-05-04T04:46:25.722Z,98230.25
2018-05-04T04:46:57.350Z,98234.09
2018-05-04T04:47:28.934Z,98231.53
2018-05-04T04:48:00.530Z,98230.67
2018-05-04T04:48:32.111Z,98231.06
2018-05-04T04:49:03.711Z,98228.13
2018-05-04T04:49:35.305Z,98223.86
2018-05-04T04:50:06.876Z,98224.30
2018-05-04T04:50:38.474Z,98225.56
2018-05-04T04:51:10.084Z,98231.48
2018-05-04T04:51:41.671Z,98231.11
2018-05-04T04:52:13.277Z,98228.52
2018-05-04T04:52:44.861Z,98227.66
2018-05-04T04:53:16.454Z,98225.11
2018-05-04T04:53:48.048Z,98235.36
2018-05-04T04:54:19.644Z,98235.79
2018-05-04T04:54:51.227Z,98238.36
2018-05-04T04:55:22.797Z,98231.16
2018-05-04T04:55:54.437Z,98232.45
2018-05-04T04:56:26.043Z,98239.31
2018-05-04T04:56:57.625Z,98241.44
2018-05-04T04:57:29.230Z,98238.84
2018-05-04T04:58:00.838Z,98236.29
2018-05-04T04:58:32.473Z,98241.87
2018-05-04T04:59:04.062Z,98239.32
2018-05-04T04:59:35.645Z,98231.70
2018-05-04T05:00:07.250Z,98237.23
2018-05-04T05:00:38.839Z,98222.50
2018-05-04T05:01:10.437Z,98242.77
2018-05-04T05:01:42.041Z,98240.66
2018-05-04T05:02:13.680Z,98241.51
2018-05-04T05:02:45.278Z,98243.67
2018-05-04T05:03:16.863Z,98245.77
2018-05-04T05:03:48.454Z,98240.66
2018-05-04T05:04:20.038Z,98247.94
2018-05-04T05:04:51.622Z,98253.90
2018-05-04T05:05:23.222Z,98250.06
2018-05-04T05:05:54.806Z,98253.86
2018-05-04T05:06:26.393Z,98257.69
2018-05-04T05:06:57.974Z,98253.85
2018-05-04T05:07:29.555Z,98249.64
2018-05-04T05:08:01.170Z,98253.85
2018-05-04T05:08:32.764Z,98262.38
2018-05-04T05:09:04.346Z,98260.25
2018-05-04T05:09:35.971Z,98254.34
2018-05-04T05:10:07.578Z,98252.63
2018-05-04T05:10:39.189Z,98253.91
2018-05-04T05:11:10.762Z,98260.72
2018-05-04T05:11:42.342Z,98255.55
2018-05-04T05:12:13.950Z,98242.09
2018-05-04T05:12:45.582Z,98254.22
2018-05-04T05:13:17.166Z,98249.95
2018-05-04T05:13:48.755Z,98253.33
2018-05-04T05:14:20.342Z,98247.78
2018-05-04T05:14:51.950Z,98244.80
2018-05-04T05:15:23.530Z,98242.24
2018-05-04T05:15:55.130Z,98243.52
2018-05-04T05:16:26.709Z,98242.72
2018-05-04T05:16:58.314Z,98246.55
2018-05-04T05:17:29.996Z,98244.00
2018-05-04T05:18:01.618Z,98245.70
2018-05-04T05:18:33.184Z,98251.67
2018-05-04T05:19:04.765Z,98249.54
2018-05-04T05:19:36.337Z,98249.12
2018-05-04T05:20:07.932Z,98255.13
2018-05-04T05:20:39.504Z,98249.16
2018-05-04T05:21:11.074Z,98250.87
2018-05-04T05:21:42.664Z,98249.59
2018-05-04T05:22:14.240Z,98247.47
2018-05-04T05:22:45.822Z,98248.30
2018-05-04T05:23:17.426Z,98252.09
2018-05-04T05:23:49.085Z,98249.96
2018-05-04T05:24:20.715Z,98255.93
2018-05-04T05:24:52.316Z,98252.09
2018-05-04T05:25:23.907Z,98251.66
2018-05-04T05:25:55.482Z,98253.38
2018-05-04T05:26:27.162Z,98255.93
2018-05-04T05:26:58.707Z,98252.98
2018-05-04T05:27:30.273Z,98260.61
2018-05-04T05:28:01.886Z,98267.47
2018-05-04T05:28:33.496Z,98269.55
2018-05-04T05:29:05.111Z,98267.44
2018-05-04T05:29:36.825Z,98265.30
2018-05-04T05:30:08.359Z,98271.27
2018-05-04T05:30:39.970Z,98269.61
2018-05-04T05:31:11.602Z,98269.59
2018-05-04T05:31:43.196Z,98272.96
2018-05-04T05:32:14.830Z,98272.92
2018-05-04T05:32:46.413Z,98272.53
2018-05-04T05:33:18.018Z,98274.61
2018-05-04T05:33:49.602Z,98270.36
2018-05-04T05:34:21.206Z,98275.52
2018-05-04T05:34:52.866Z,98277.22
2018-05-04T05:35:24.459Z,98269.98
2018-05-04T05:35:56.070Z,98274.67
2018-05-04T05:36:27.664Z,98272.16
2018-05-04T05:36:59.254Z,98273.39
2018-05-04T05:37:30.854Z,98277.65
2018-05-04T05:38:02.428Z,98271.69
2018-05-04T05:38:34.030Z,98266.16
2018-05-04T05:39:05.624Z,98276.84
2018-05-04T05:39:37.196Z,98280.20
2018-05-04T05:40:08.842Z,98272.54
2018-05-04T05:40:40.475Z,98276.38
2018-05-04T05:41:12.045Z,98263.17
2018-05-04T05:41:43.626Z,98274.24
2018-05-04T05:42:15.206Z,98272.16
2018-05-04T05:42:46.790Z,98271.73
2018-05-04T05:43:18.370Z,98264.91
2018-05-04T05:43:49.978Z,98266.20
2018-05-04T05:44:21.592Z,98265.35
2018-05-04T05:44:53.201Z,98260.71
2018-05-04T05:45:24.845Z,98259.01
2018-05-04T05:45:56.503Z,98258.16
2018-05-04T05:46:28.096Z,98254.77
2018-05-04T05:46:59.678Z,98259.86
2018-05-04T05:47:31.265Z,98259.86
2018-05-04T05:48:02.876Z,98260.28
2018-05-04T05:48:34.482Z,98267.09
2018-05-04T05:49:06.085Z,98258.59
2018-05-04T05:49:37.690Z,98266.25
2018-05-04T05:50:09.277Z,98270.93
2018-05-04T05:50:40.926Z,98264.55
2018-05-04T05:51:12.514Z,98267.95
2018-05-04T05:51:44.115Z,98272.21
2018-05-04T05:52:15.684Z,98271.36
2018-05-04T05:52:47.286Z,98264.97
2018-05-04T05:53:18.858Z,98265.41
2018-05-04T05:53:50.442Z,98268.81
2018-05-04T05:54:22.030Z,98270.55
2018-05-04T05:54:53.605Z,98271.36
2018-05-04T05:55:25.176Z,98264.55
2018-05-04T05:55:56.786Z,98266.69
2018-05-04T05:56:28.394Z,98267.53
2018-05-04T05:56:59.964Z,98266.68
2018-05-04T05:57:31.553Z,98268.38
2018-05-04T05:58:03.230Z,98270.52
2018-05-04T05:58:34.752Z,98268.80
2018-05-04T05:59:06.354Z,98265.81
2018-05-04T05:59:37.962Z,98273.97
2018-05-04T06:00:09.584Z,98273.92
2018-05-04T06:00:41.160Z,98276.48
2018-05-04T06:01:12.746Z,98268.81
2018-05-04T06:01:44.365Z,98274.34
2018-05-04T06:02:15.954Z,98276.89
2018-05-04T06:02:47.578Z,98278.17
2018-05-04T06:03:19.206Z,98281.15
2018-05-04T06:03:50.797Z,98284.98
2018-05-04T06:04:22.408Z,98285.41
2018-05-04T06:04:53.990Z,98274.07
2018-05-04T06:05:25.556Z,98286.27
2018-05-04T06:05:57.157Z,98289.25
2018-05-04T06:06:28.753Z,98292.22
2018-05-04T06:07:00.357Z,98290.05
2018-05-04T06:07:31.952Z,98293.07
2018-05-04T06:08:03.534Z,98291.80
2018-05-04T06:08:35.178Z,98294.74
2018-05-04T06:09:06.762Z,98293.02
2018-05-04T06:09:38.369Z,98292.55
2018-05-04T06:10:09.951Z,98292.98
2018-05-04T06:10:41.567Z,98292.98
2018-05-04T06:11:13.150Z,98290.05